createdAt,value
2022-11-27T00:00:51.477Z,113.9
2022-11-27T00:02:07.760Z,105.5
2022-11-27T00:03:24.061Z,108.5
2022-11-27T00:04:40.358Z,115.7
2022-11-27T00:05:56.659Z,111
2022-11-27T00:07:12.938Z,119.2
2022-11-27T00:08:29.246Z,121.6
2022-11-27T00:09:45.533Z,112
2022-11-27T00:11:01.839Z,120.6
2022-11-27T00:12:18.131Z,128.4
2022-11-27T00:13:34.412Z,141.4
2022-11-27T00:14:50.718Z,125.5
2022-11-27T00:17:23.297Z,150.6
2022-11-27T00:18:38.608Z,126.3
2022-11-27T00:19:54.916Z,129
2022-11-27T00:21:11.212Z,131.4
2022-11-27T00:22:27.491Z,141.5
2022-11-27T00:25:00.102Z,142.1
2022-11-27T00:26:16.391Z,145
2022-11-27T00:27:32.689Z,127.9
2022-11-27T00:28:48.975Z,137.1
2022-11-27T00:30:05.264Z,152.8
2022-11-27T00:31:21.560Z,147.6
2022-11-27T00:32:37.851Z,151
2022-11-27T00:33:54.163Z,135.1
2022-11-27T00:35:09.461Z,127.3
2022-11-27T00:36:25.761Z,128
2022-11-27T00:37:42.054Z,125
2022-11-27T00:38:58.357Z,118.9
2022-11-27T00:40:14.649Z,118.6
2022-11-27T00:41:30.947Z,113.5
2022-11-27T00:42:47.229Z,115.4
2022-11-27T00:44:03.530Z,110.4
2022-11-27T00:45:19.830Z,111.6
2022-11-27T00:46:36.127Z,110.7
2022-11-27T00:47:52.413Z,105.7
2022-11-27T00:49:08.705Z,111.1
2022-11-27T00:50:25.008Z,106.5
2022-11-27T00:51:40.316Z,111.4
2022-11-27T00:52:56.618Z,111.2
2022-11-27T00:54:12.918Z,108.1
2022-11-27T00:55:29.200Z,108.1
2022-11-27T00:56:45.506Z,101.9
2022-11-27T00:58:01.784Z,106.9
2022-11-27T00:59:18.083Z,103.6
2022-11-27T01:00:34.370Z,111.4
2022-11-27T01:01:50.670Z,110.5
2022-11-27T01:03:06.970Z,113.1
2022-11-27T01:04:23.270Z,117.8
2022-11-27T01:05:39.554Z,110.2
2022-11-27T01:06:55.848Z,103
2022-11-27T01:08:11.164Z,104.1
2022-11-27T01:09:27.467Z,105.2
2022-11-27T01:10:43.764Z,109
2022-11-27T01:12:00.043Z,109.2
2022-11-27T01:13:16.334Z,106.4
2022-11-27T01:14:32.630Z,111.2
2022-11-27T01:15:48.928Z,97.6
2022-11-27T01:17:05.230Z,107.4
2022-11-27T01:18:21.516Z,110.5
2022-11-27T01:19:37.823Z,111.4
2022-11-27T01:20:54.105Z,105.6
2022-11-27T01:22:10.413Z,109.5
2022-11-27T01:23:26.698Z,115.2
2022-11-27T01:24:42.024Z,104.4
2022-11-27T01:25:58.313Z,107.7
2022-11-27T01:27:14.616Z,101.9
2022-11-27T01:28:30.911Z,98.3
2022-11-27T01:29:47.196Z,99.5
2022-11-27T01:31:03.499Z,100.1
2022-11-27T01:32:19.789Z,100.9
2022-11-27T01:33:36.089Z,97.3
2022-11-27T01:34:52.376Z,101.5
2022-11-27T01:36:08.665Z,95.9
2022-11-27T01:38:41.256Z,103.5
2022-11-27T01:39:57.559Z,102.7
2022-11-27T01:41:12.863Z,100.5
2022-11-27T01:42:29.153Z,97
2022-11-27T01:43:45.461Z,104.8
2022-11-27T01:45:01.743Z,102.6
2022-11-27T01:46:18.055Z,100.3
2022-11-27T01:47:33.356Z,99.7
2022-11-27T01:48:49.665Z,99.2
2022-11-27T01:50:05.959Z,100.1
2022-11-27T01:51:22.254Z,98.6
2022-11-27T01:52:38.536Z,96.3
2022-11-27T01:53:54.835Z,94.4
2022-11-27T01:55:11.133Z,90.7
2022-11-27T01:56:27.425Z,92.8
2022-11-27T01:57:43.725Z,98.9
2022-11-27T01:59:00.015Z,87
2022-11-27T02:00:16.315Z,95.7
2022-11-27T02:01:32.610Z,90
2022-11-27T02:02:48.897Z,91.1
2022-11-27T02:04:04.205Z,93.9
2022-11-27T02:05:20.516Z,92.7
2022-11-27T02:06:36.812Z,95.6
2022-11-27T02:07:53.102Z,87.8
2022-11-27T02:09:09.397Z,96.6
2022-11-27T02:10:25.680Z,92.5
2022-11-27T02:11:41.977Z,96.3
2022-11-27T02:12:58.282Z,87.5
2022-11-27T02:14:14.566Z,89.1
2022-11-27T02:15:30.872Z,91.5
2022-11-27T02:16:47.155Z,91.3
2022-11-27T02:18:03.452Z,89.9
2022-11-27T02:19:19.749Z,91.4
2022-11-27T02:20:35.067Z,90.9
2022-11-27T02:21:51.360Z,85.4
2022-11-27T02:23:07.654Z,90.5
2022-11-27T02:24:23.950Z,96
2022-11-27T02:25:40.252Z,90
2022-11-27T02:26:56.530Z,94.8
2022-11-27T02:28:12.840Z,92.8
2022-11-27T02:29:29.123Z,93.7
2022-11-27T02:30:45.412Z,89.2
2022-11-27T02:32:01.725Z,93.1
2022-11-27T02:33:18.018Z,89.8
2022-11-27T02:34:34.300Z,95.7
2022-11-27T02:35:50.603Z,90.5
2022-11-27T02:37:05.919Z,92.8
2022-11-27T02:38:22.201Z,95.6
2022-11-27T02:39:38.492Z,90.4
2022-11-27T02:40:54.789Z,97
2022-11-27T02:42:11.095Z,100.3
2022-11-27T02:43:27.388Z,96.4
2022-11-27T02:44:43.677Z,98
2022-11-27T02:45:59.972Z,103.5
2022-11-27T02:47:16.272Z,95.9
2022-11-27T02:48:32.567Z,95.7
2022-11-27T02:49:48.871Z,92.9
2022-11-27T02:51:05.151Z,96.8
2022-11-27T02:52:21.456Z,94.6
2022-11-27T02:53:36.766Z,99.2
2022-11-27T02:54:53.054Z,96.6
2022-11-27T02:56:09.357Z,100.6
2022-11-27T02:57:25.642Z,93.4
2022-11-27T02:58:41.953Z,95.8
2022-11-27T02:59:58.243Z,98.1
2022-11-27T03:02:30.829Z,96.1
2022-11-27T03:03:47.116Z,96.9
2022-11-27T03:05:03.410Z,96
2022-11-27T03:06:19.709Z,93.7
2022-11-27T03:07:36.001Z,101.1
2022-11-27T03:08:52.306Z,102.6
2022-11-27T03:10:07.603Z,91.9
2022-11-27T03:11:23.897Z,94.9
2022-11-27T03:12:40.200Z,93.7
2022-11-27T03:13:56.508Z,93.8
2022-11-27T03:15:12.786Z,95.3
2022-11-27T03:16:29.079Z,99.3
2022-11-27T03:17:45.388Z,91.4
2022-11-27T03:19:01.671Z,90.7
2022-11-27T03:20:17.970Z,89.1
2022-11-27T03:21:34.268Z,88.6
2022-11-27T03:22:50.558Z,93.1
2022-11-27T03:24:06.848Z,92.7
2022-11-27T03:25:23.163Z,90.9
2022-11-27T03:26:38.459Z,89.4
2022-11-27T03:27:54.770Z,89.2
2022-11-27T03:29:11.047Z,88.5
2022-11-27T03:30:27.340Z,88.8
2022-11-27T03:31:43.634Z,89.6
2022-11-27T03:32:59.940Z,92
2022-11-27T03:34:16.238Z,87.9
2022-11-27T03:35:32.520Z,91.6
2022-11-27T03:36:48.813Z,92.1
2022-11-27T03:38:05.116Z,91.8
2022-11-27T03:40:37.707Z,92.9
2022-11-27T03:41:53.998Z,92.9
2022-11-27T03:43:09.310Z,90.7
2022-11-27T03:44:25.602Z,88
2022-11-27T03:45:41.904Z,89.7
2022-11-27T03:46:58.198Z,89.9
2022-11-27T03:48:14.482Z,93.4
2022-11-27T03:49:30.791Z,89.6
2022-11-27T03:50:47.090Z,89.4
2022-11-27T03:52:03.382Z,88.9
2022-11-27T03:53:19.668Z,84.5
2022-11-27T03:54:35.976Z,91.2
2022-11-27T03:55:52.262Z,88.9
2022-11-27T03:57:08.567Z,89
2022-11-27T03:58:24.856Z,90.9
2022-11-27T03:59:40.161Z,83
2022-11-27T04:00:56.463Z,87
2022-11-27T04:02:12.753Z,91.4
2022-11-27T04:03:29.042Z,87.1
2022-11-27T04:04:45.338Z,86.4
2022-11-27T04:06:01.642Z,84.2
2022-11-27T04:07:17.942Z,91.4
2022-11-27T04:08:34.218Z,85.6
2022-11-27T04:09:50.514Z,84
2022-11-27T04:11:06.827Z,84.4
2022-11-27T04:12:23.121Z,88.1
2022-11-27T04:13:39.402Z,80.8
2022-11-27T04:14:55.710Z,84.6
2022-11-27T04:16:11.018Z,90.3
2022-11-27T04:17:27.304Z,83.3
2022-11-27T04:18:43.601Z,76
2022-11-27T04:19:59.900Z,86.1
2022-11-27T04:21:16.190Z,79.5
2022-11-27T04:22:32.486Z,84.1
2022-11-27T04:23:48.784Z,83
2022-11-27T04:26:21.371Z,82.6
2022-11-27T04:27:37.660Z,84.8
2022-11-27T04:28:53.958Z,83.2
2022-11-27T04:30:10.249Z,79.7
2022-11-27T04:31:26.555Z,76.8
2022-11-27T04:32:41.865Z,84.9
2022-11-27T04:33:58.166Z,82.2
2022-11-27T04:35:14.451Z,75.5
2022-11-27T04:36:30.744Z,77.1
2022-11-27T04:37:47.045Z,79.7
2022-11-27T04:39:03.342Z,85.6
2022-11-27T04:40:19.633Z,78.1
2022-11-27T04:41:35.919Z,78.4
2022-11-27T04:42:52.223Z,77.6
2022-11-27T04:44:08.515Z,81.4
2022-11-27T04:45:24.804Z,83.3
2022-11-27T04:46:41.108Z,77.9
2022-11-27T04:47:57.412Z,83.2
2022-11-27T04:49:12.720Z,79.2
2022-11-27T04:50:29.011Z,78.9
2022-11-27T04:51:45.309Z,84.2
2022-11-27T04:53:01.610Z,75.7
2022-11-27T04:54:17.888Z,76.8
2022-11-27T04:55:34.193Z,83.4
2022-11-27T04:56:50.479Z,74.4
2022-11-27T04:58:06.775Z,74.3
2022-11-27T04:59:23.070Z,76.3
2022-11-27T05:00:39.362Z,75.4
2022-11-27T05:01:55.667Z,70.9
2022-11-27T05:03:11.948Z,74.9
2022-11-27T05:04:28.243Z,74.3
2022-11-27T05:06:59.852Z,68.6
2022-11-27T05:08:16.147Z,74.4
2022-11-27T05:09:32.439Z,71.7
2022-11-27T05:10:48.738Z,75.1
2022-11-27T05:12:05.031Z,74.1
2022-11-27T05:13:21.336Z,73.7
2022-11-27T05:14:37.619Z,73.5
2022-11-27T05:15:53.931Z,72.2
2022-11-27T05:17:10.228Z,69.8
2022-11-27T05:19:42.812Z,64.3
2022-11-27T05:20:59.094Z,67.8
2022-11-27T05:22:14.425Z,68.3
2022-11-27T05:23:30.713Z,65.4
2022-11-27T05:24:47.006Z,62.3
2022-11-27T05:26:03.295Z,61.8
2022-11-27T05:27:19.597Z,64.5
2022-11-27T05:28:35.882Z,59.5
2022-11-27T05:29:52.184Z,61.1
2022-11-27T05:31:08.477Z,56.9
2022-11-27T05:32:24.777Z,59.2
2022-11-27T05:33:41.070Z,59.1
2022-11-27T05:34:57.359Z,55.5
2022-11-27T05:36:13.652Z,62.2
2022-11-27T05:37:29.959Z,55.8
2022-11-27T05:40:01.566Z,55.5
2022-11-27T05:41:17.862Z,57.7
2022-11-27T05:42:34.142Z,57.2
2022-11-27T05:43:50.440Z,59.9
2022-11-27T05:45:06.743Z,55.6
2022-11-27T05:46:23.039Z,56
2022-11-27T05:47:39.325Z,58.6
2022-11-27T05:48:55.616Z,56.5
2022-11-27T05:50:11.919Z,57.5
2022-11-27T05:52:44.518Z,60.5
2022-11-27T05:54:00.799Z,54.8
2022-11-27T05:55:16.109Z,60.2
2022-11-27T05:56:32.420Z,57
2022-11-27T05:57:48.706Z,54.8
2022-11-27T05:59:04.997Z,54
2022-11-27T06:00:21.295Z,56.6
2022-11-27T06:01:37.589Z,56
2022-11-27T06:02:52.843Z,54
2022-11-27T06:04:09.142Z,56.8
2022-11-27T06:05:25.438Z,56
2022-11-27T06:07:57.927Z,56.4
2022-11-27T06:09:14.221Z,54.3
2022-11-27T06:10:30.530Z,54.5
2022-11-27T06:11:46.825Z,52.7
2022-11-27T06:13:03.079Z,51
2022-11-27T06:14:19.378Z,59.1
2022-11-27T06:15:35.613Z,55.7
2022-11-27T06:16:51.853Z,49.2
2022-11-27T06:18:08.105Z,51.1
2022-11-27T06:19:23.360Z,51.7
2022-11-27T06:20:39.597Z,56.5
2022-11-27T06:21:55.836Z,57.4
2022-11-27T06:23:12.075Z,51.6
2022-11-27T06:24:28.324Z,52.9
2022-11-27T06:25:44.565Z,48.8
2022-11-27T06:27:00.803Z,49
2022-11-27T06:28:17.040Z,49
2022-11-27T06:29:33.287Z,50
2022-11-27T06:30:49.528Z,48.7
2022-11-27T06:32:05.774Z,47.3
2022-11-27T06:33:22.001Z,47.7
2022-11-27T06:34:38.257Z,48.5
2022-11-27T06:35:53.515Z,48.3
2022-11-27T06:37:09.745Z,49.9
2022-11-27T06:38:25.980Z,50.2
2022-11-27T06:39:42.225Z,46.8
2022-11-27T06:40:58.466Z,46.2
2022-11-27T06:42:14.709Z,46.3
2022-11-27T06:43:30.960Z,44.7
2022-11-27T06:44:47.190Z,43.4
2022-11-27T06:46:03.444Z,42.4
2022-11-27T06:47:19.687Z,42.6
2022-11-27T06:48:35.920Z,40.7
2022-11-27T06:49:52.160Z,41.4
2022-11-27T06:51:08.397Z,41.3
2022-11-27T06:52:23.648Z,37.7
2022-11-27T06:53:39.897Z,40.9
2022-11-27T06:54:56.141Z,39
2022-11-27T06:56:12.391Z,40.7
2022-11-27T06:57:28.621Z,40.5
2022-11-27T06:58:44.852Z,40.5
2022-11-27T07:00:01.107Z,38.2
2022-11-27T07:01:17.343Z,37.8
2022-11-27T07:02:33.585Z,41.7
2022-11-27T07:03:49.833Z,37.7
2022-11-27T07:05:06.058Z,37.5
2022-11-27T07:06:22.311Z,37.8
2022-11-27T07:07:38.542Z,39.3
2022-11-27T07:08:53.797Z,35.4
2022-11-27T07:10:10.041Z,39.6
2022-11-27T07:11:26.282Z,35.8
2022-11-27T07:12:42.525Z,34.6
2022-11-27T07:13:58.780Z,35.3
2022-11-27T07:15:15.014Z,37.1
2022-11-27T07:16:31.257Z,35.2
2022-11-27T07:17:47.500Z,35.6
2022-11-27T07:19:03.726Z,35.4
2022-11-27T07:20:19.980Z,32.7
2022-11-27T07:21:36.221Z,30.5
2022-11-27T07:22:52.452Z,34.1
2022-11-27T07:24:08.694Z,33.1
2022-11-27T07:25:23.961Z,32.5
2022-11-27T07:26:40.204Z,32.9
2022-11-27T07:27:56.441Z,29.9
2022-11-27T07:29:12.670Z,31
2022-11-27T07:30:28.911Z,31.6
2022-11-27T07:31:45.153Z,33.4
2022-11-27T07:33:01.391Z,29.2
2022-11-27T07:34:17.632Z,31.5
2022-11-27T07:35:33.876Z,32.1
2022-11-27T07:36:50.112Z,31.2
2022-11-27T07:38:06.365Z,30.5
2022-11-27T07:39:22.602Z,29.5
2022-11-27T07:40:38.844Z,29.5
2022-11-27T07:41:54.107Z,29.1
2022-11-27T07:43:10.344Z,28.5
2022-11-27T07:44:26.587Z,29
2022-11-27T07:45:42.822Z,25.8
2022-11-27T07:46:59.060Z,31.3
2022-11-27T07:48:15.307Z,29.7
2022-11-27T07:49:31.542Z,31.1
2022-11-27T07:50:47.787Z,31.6
2022-11-27T07:52:04.037Z,29
2022-11-27T07:53:20.271Z,29.5
2022-11-27T07:54:36.517Z,27.5
2022-11-27T07:55:52.757Z,29
2022-11-27T07:57:09.004Z,26.4
2022-11-27T07:58:24.250Z,27.4
2022-11-27T07:59:40.501Z,27
2022-11-27T08:00:56.737Z,27.6
2022-11-27T08:02:12.967Z,26
2022-11-27T08:03:29.218Z,27.7
2022-11-27T08:04:45.463Z,27.9
2022-11-27T08:06:01.694Z,25.1
2022-11-27T08:07:17.932Z,27.6
2022-11-27T08:08:34.188Z,26.2
2022-11-27T08:09:50.428Z,25.5
2022-11-27T08:11:06.652Z,24.8
2022-11-27T08:12:22.904Z,24.7
2022-11-27T08:13:39.149Z,24.4
2022-11-27T08:14:54.402Z,25.1
2022-11-27T08:16:10.648Z,26.9
2022-11-27T08:17:26.872Z,23
2022-11-27T08:18:43.113Z,23.7
2022-11-27T08:19:59.362Z,23.5
2022-11-27T08:22:31.842Z,23.1
2022-11-27T08:23:48.086Z,23.9
2022-11-27T08:25:04.326Z,21.5
2022-11-27T08:26:20.565Z,22.2
2022-11-27T08:27:36.816Z,24.6
2022-11-27T08:30:09.294Z,23.3
2022-11-27T08:31:24.548Z,24.1
2022-11-27T08:32:40.788Z,23.4
2022-11-27T08:33:57.032Z,21
2022-11-27T08:35:13.278Z,21.2
2022-11-27T08:36:29.511Z,22.8
2022-11-27T08:37:45.750Z,22.7
2022-11-27T08:39:01.986Z,22.4
2022-11-27T08:40:18.231Z,21.4
2022-11-27T08:41:34.464Z,20.9
2022-11-27T08:42:50.712Z,21.5
2022-11-27T08:44:06.962Z,20.7
2022-11-27T08:45:23.200Z,21.4
2022-11-27T08:46:39.438Z,20.2
2022-11-27T08:47:54.690Z,20
2022-11-27T08:49:10.934Z,21
2022-11-27T08:50:27.169Z,22.7
2022-11-27T08:51:43.423Z,21
2022-11-27T08:52:59.650Z,21.8
2022-11-27T08:54:15.900Z,19.3
2022-11-27T08:55:32.133Z,21.2
2022-11-27T08:56:48.370Z,21.8
2022-11-27T08:58:04.628Z,20.8
2022-11-27T08:59:20.865Z,22.1
2022-11-27T09:00:37.098Z,20.3
2022-11-27T09:01:53.345Z,22.8
2022-11-27T09:03:09.589Z,20.1
2022-11-27T09:04:24.843Z,18.7
2022-11-27T09:06:57.317Z,19.9
2022-11-27T09:08:13.572Z,20.1
2022-11-27T09:10:46.052Z,21.1
2022-11-27T09:12:02.286Z,21.2
2022-11-27T09:13:18.521Z,19.2
2022-11-27T09:15:51.019Z,18.7
2022-11-27T09:17:06.283Z,20.1
2022-11-27T09:18:21.538Z,18.3
2022-11-27T09:19:37.780Z,19.3
2022-11-27T09:20:54.015Z,17.4
2022-11-27T09:22:10.248Z,18.9
2022-11-27T09:23:26.497Z,19
2022-11-27T09:24:42.742Z,18.2
2022-11-27T09:25:58.984Z,18.6
2022-11-27T09:27:15.209Z,16.8
2022-11-27T09:28:31.457Z,17.8
2022-11-27T09:29:47.690Z,17.2
2022-11-27T09:31:02.968Z,19.2
2022-11-27T09:32:18.209Z,17.3
2022-11-27T09:33:34.464Z,16
2022-11-27T09:34:50.694Z,17.1
2022-11-27T09:36:06.947Z,16.1
2022-11-27T09:37:23.178Z,14.8
2022-11-27T09:38:39.428Z,17
2022-11-27T09:39:55.667Z,16.5
2022-11-27T09:41:11.898Z,18.2
2022-11-27T09:42:28.146Z,19.9
2022-11-27T09:43:44.383Z,17.4
2022-11-27T09:45:00.619Z,15.4
2022-11-27T09:46:16.872Z,17.8
2022-11-27T09:47:33.109Z,16.3
2022-11-27T09:48:48.361Z,17.3
2022-11-27T09:50:04.609Z,15.7
2022-11-27T09:51:20.837Z,15.3
2022-11-27T09:52:37.080Z,15.4
2022-11-27T09:53:53.338Z,15.3
2022-11-27T09:55:09.572Z,16.4
2022-11-27T09:56:25.810Z,17.1
2022-11-27T09:57:42.058Z,14.8
2022-11-27T09:58:58.291Z,17.2
2022-11-27T10:00:14.530Z,14.8
2022-11-27T10:01:30.782Z,15.6
2022-11-27T10:04:03.248Z,14.7
2022-11-27T10:05:18.510Z,13.2
2022-11-27T10:06:34.760Z,16.1
2022-11-27T10:07:50.986Z,17.6
2022-11-27T10:09:07.236Z,14.5
2022-11-27T10:10:23.479Z,16.2
2022-11-27T10:11:39.724Z,14.4
2022-11-27T10:12:55.956Z,13.7
2022-11-27T10:14:12.190Z,14.4
2022-11-27T10:15:28.430Z,14.2
2022-11-27T10:16:44.679Z,15
2022-11-27T10:17:59.950Z,16.4
2022-11-27T10:19:16.174Z,13.3
2022-11-27T10:20:32.434Z,13.9
2022-11-27T10:21:48.657Z,15.1
2022-11-27T10:24:21.142Z,15.7
2022-11-27T10:25:37.378Z,14.6
2022-11-27T10:26:53.631Z,15.3
2022-11-27T10:28:09.868Z,16.1
2022-11-27T10:29:26.116Z,14.2
2022-11-27T10:30:42.344Z,15.3
2022-11-27T10:31:58.580Z,17.6
2022-11-27T10:33:14.836Z,15.8
2022-11-27T10:34:30.096Z,15.2
2022-11-27T10:35:46.325Z,15
2022-11-27T10:37:02.579Z,16
2022-11-27T10:38:18.812Z,15.1
2022-11-27T10:39:35.053Z,14.3
2022-11-27T10:40:51.296Z,14.5
2022-11-27T10:42:07.541Z,14.9
2022-11-27T10:43:23.767Z,12.9
2022-11-27T10:44:40.012Z,13.9
2022-11-27T10:45:56.245Z,13
2022-11-27T10:47:12.494Z,13.5
2022-11-27T10:48:28.740Z,14.8
2022-11-27T10:49:44.969Z,13.8
2022-11-27T10:51:00.235Z,14.5
2022-11-27T10:52:16.485Z,13.8
2022-11-27T10:53:32.726Z,15.2
2022-11-27T10:54:48.947Z,14.5
2022-11-27T10:56:05.190Z,14.8
2022-11-27T10:57:21.438Z,14.4
2022-11-27T10:58:37.674Z,13.3
2022-11-27T10:59:53.930Z,13.5
2022-11-27T11:01:10.168Z,14.6
2022-11-27T11:02:26.397Z,13
2022-11-27T11:03:42.638Z,14.8
2022-11-27T11:04:58.879Z,14.1
2022-11-27T11:06:15.121Z,13.5
2022-11-27T11:07:30.377Z,14.4
2022-11-27T11:08:46.630Z,13.8
2022-11-27T11:10:02.860Z,14.7
2022-11-27T11:11:19.110Z,12.7
2022-11-27T11:12:35.347Z,13
2022-11-27T11:13:51.585Z,14.5
2022-11-27T11:15:07.832Z,13.1
2022-11-27T11:16:24.057Z,15.8
2022-11-27T11:17:40.297Z,14
2022-11-27T11:18:56.546Z,12
2022-11-27T11:20:12.784Z,13.5
2022-11-27T11:21:29.029Z,12.8
2022-11-27T11:22:45.270Z,12.9
2022-11-27T11:24:00.000Z,13.1
2022-11-27T11:25:16.774Z,13.5
2022-11-27T11:26:33.013Z,13.7
2022-11-27T11:27:49.247Z,14.4
2022-11-27T11:29:05.494Z,13.2
2022-11-27T11:30:21.740Z,14.4
2022-11-27T11:32:54.218Z,12.4
2022-11-27T11:34:10.447Z,15
2022-11-27T11:35:26.698Z,13
2022-11-27T11:36:42.941Z,14
2022-11-27T11:37:59.184Z,14.1
2022-11-27T11:39:15.426Z,16.5
2022-11-27T11:40:30.673Z,14.5
2022-11-27T11:41:46.913Z,13.4
2022-11-27T11:43:03.144Z,14.4
2022-11-27T11:44:19.402Z,14.6
2022-11-27T11:45:35.645Z,14.2
2022-11-27T11:46:51.870Z,15.6
2022-11-27T11:48:08.110Z,14.7
2022-11-27T11:49:24.362Z,13.5
2022-11-27T11:50:40.598Z,13.1
2022-11-27T11:51:56.843Z,13.1
2022-11-27T11:53:13.079Z,14.3
2022-11-27T11:55:45.556Z,14.1
2022-11-27T11:57:00.825Z,14.4
2022-11-27T11:58:17.058Z,14.4
2022-11-27T11:59:33.301Z,14.6
2022-11-27T12:00:49.545Z,14.5
2022-11-27T12:02:05.774Z,14
2022-11-27T12:03:22.014Z,13.3
2022-11-27T12:04:38.267Z,13.6
2022-11-27T12:05:54.496Z,14.2
2022-11-27T12:07:10.749Z,13.8
2022-11-27T12:08:26.986Z,14.5
2022-11-27T12:09:43.229Z,13.8
2022-11-27T12:10:59.473Z,13.2
2022-11-27T12:12:15.706Z,14.6
2022-11-27T12:13:30.971Z,15
2022-11-27T12:14:47.208Z,17.2
2022-11-27T12:16:03.444Z,15.3
2022-11-27T12:17:19.689Z,16.5
2022-11-27T12:18:35.925Z,15
2022-11-27T12:19:52.166Z,16.5
2022-11-27T12:21:08.405Z,16.6
2022-11-27T12:22:24.651Z,16
2022-11-27T12:23:40.882Z,16.5
2022-11-27T12:24:57.141Z,14.7
2022-11-27T12:26:13.370Z,14.1
2022-11-27T12:27:29.605Z,15.1
2022-11-27T12:28:45.851Z,15.9
2022-11-27T12:30:01.099Z,16.4
2022-11-27T12:31:17.343Z,14.7
2022-11-27T12:32:33.583Z,15.5
2022-11-27T12:33:49.832Z,17.1
2022-11-27T12:35:06.063Z,16.8
2022-11-27T12:36:22.316Z,14.6
2022-11-27T12:37:38.542Z,16.5
2022-11-27T12:38:54.794Z,16.7
2022-11-27T12:40:11.041Z,14.1
2022-11-27T12:41:27.274Z,14.5
2022-11-27T12:42:43.510Z,16.6
2022-11-27T12:43:59.761Z,15.7
2022-11-27T12:45:15.988Z,15.9
2022-11-27T12:46:31.247Z,17.3
2022-11-27T12:47:47.499Z,16
2022-11-27T12:49:03.724Z,16
2022-11-27T12:50:19.972Z,15.5
2022-11-27T12:51:36.223Z,16.1
2022-11-27T12:52:52.445Z,16.5
2022-11-27T12:54:08.692Z,16.8
2022-11-27T12:55:24.930Z,15
2022-11-27T12:56:41.181Z,15.2
2022-11-27T12:57:57.424Z,14.1
2022-11-27T12:59:13.657Z,15.3
2022-11-27T13:00:29.893Z,15.8
2022-11-27T13:01:46.137Z,13.9
2022-11-27T13:03:02.386Z,14.9
2022-11-27T13:04:17.642Z,14.6
2022-11-27T13:05:33.877Z,13.2
2022-11-27T13:06:50.113Z,14.2
2022-11-27T13:08:06.355Z,14
2022-11-27T13:09:22.607Z,12.9
2022-11-27T13:10:38.830Z,14.2
2022-11-27T13:11:55.086Z,13.3
2022-11-27T13:13:11.313Z,17.2
2022-11-27T13:14:27.562Z,13.7
2022-11-27T13:15:43.812Z,12.7
2022-11-27T13:17:00.034Z,17.3
2022-11-27T13:18:16.282Z,14.9
2022-11-27T13:19:32.528Z,14.2
2022-11-27T13:20:47.775Z,15.6
2022-11-27T13:22:04.018Z,16
2022-11-27T13:23:20.260Z,14.6
2022-11-27T13:24:36.503Z,15.3
2022-11-27T13:25:52.750Z,14.4
2022-11-27T13:27:08.981Z,16.3
2022-11-27T13:28:25.216Z,16
2022-11-27T13:29:41.456Z,14.7
2022-11-27T13:30:57.705Z,15.1
2022-11-27T13:32:13.950Z,15.8
2022-11-27T13:33:30.178Z,13.7
2022-11-27T13:34:46.435Z,14.6
2022-11-27T13:36:02.667Z,14.4
2022-11-27T13:37:17.922Z,15.7
2022-11-27T13:38:34.157Z,14.8
2022-11-27T13:39:50.414Z,14.8
2022-11-27T13:41:06.651Z,15.4
2022-11-27T13:42:22.887Z,14.1
2022-11-27T13:43:39.134Z,14
2022-11-27T13:44:55.374Z,14.8
2022-11-27T13:46:11.604Z,15.1
2022-11-27T13:47:27.854Z,13.3
2022-11-27T13:51:16.576Z,12.5
2022-11-27T13:52:32.812Z,14.6
2022-11-27T13:53:48.074Z,14.9
2022-11-27T13:55:04.306Z,14
2022-11-27T13:56:20.562Z,13.5
2022-11-27T13:57:36.786Z,12.2
2022-11-27T13:58:53.045Z,13.2
2022-11-27T14:00:09.281Z,13.7
2022-11-27T14:02:41.753Z,18
2022-11-27T14:03:57.012Z,15.8
2022-11-27T14:05:12.277Z,17.7
2022-11-27T14:06:28.525Z,16.6
2022-11-27T14:07:44.747Z,15.1
2022-11-27T14:09:00.995Z,14.1
2022-11-27T14:10:17.247Z,14.6
2022-11-27T14:12:49.711Z,13.6
2022-11-27T14:14:05.962Z,13.8
2022-11-27T14:15:22.191Z,14.6
2022-11-27T14:16:38.437Z,14.7
2022-11-27T14:17:54.678Z,12.9
2022-11-27T14:19:10.916Z,13.6
2022-11-27T14:20:27.165Z,17.8
2022-11-27T14:21:42.416Z,18.7
2022-11-27T14:22:58.668Z,19.2
2022-11-27T14:24:14.906Z,16.2
2022-11-27T14:25:31.151Z,15.5
2022-11-27T14:26:47.392Z,15.3
2022-11-27T14:28:03.615Z,16.2
2022-11-27T14:29:19.860Z,17.1
2022-11-27T14:30:36.099Z,14.7
2022-11-27T14:31:51.374Z,14.9
2022-11-27T14:33:06.633Z,15.2
2022-11-27T14:34:22.870Z,14.2
2022-11-27T14:35:39.106Z,14.4
2022-11-27T14:36:55.344Z,13.4
2022-11-27T14:38:11.601Z,16.7
2022-11-27T14:39:27.826Z,14.6
2022-11-27T14:40:44.064Z,17.2
2022-11-27T14:42:00.304Z,17.9
2022-11-27T14:43:16.551Z,17.1
2022-11-27T14:44:32.788Z,18
2022-11-27T14:45:49.042Z,15.2
2022-11-27T14:47:05.271Z,15.1
2022-11-27T14:48:21.515Z,13.5
2022-11-27T14:49:36.772Z,12.8
2022-11-27T14:50:53.019Z,13.1
2022-11-27T14:52:09.247Z,14
2022-11-27T14:53:25.494Z,13.3
2022-11-27T14:54:41.745Z,12.3
2022-11-27T14:55:57.977Z,15.2
2022-11-27T14:58:30.465Z,14.9
2022-11-27T14:59:46.695Z,14.1
2022-11-27T15:01:02.937Z,12.6
2022-11-27T15:02:19.171Z,13.7
2022-11-27T15:03:35.422Z,13.4
2022-11-27T15:04:51.669Z,12.1
2022-11-27T15:06:07.906Z,12
2022-11-27T15:07:23.163Z,13.8
2022-11-27T15:08:39.391Z,13.9
2022-11-27T15:09:55.640Z,15
2022-11-27T15:11:11.873Z,13.7
2022-11-27T15:12:28.119Z,13.6
2022-11-27T15:13:44.357Z,15.3
2022-11-27T15:15:00.594Z,14.1
2022-11-27T15:16:16.845Z,12.7
2022-11-27T15:17:33.079Z,15
2022-11-27T15:18:49.321Z,14.9
2022-11-27T15:20:05.560Z,13.8
2022-11-27T15:21:21.802Z,13.3
2022-11-27T15:22:38.042Z,15.2
2022-11-27T15:23:53.297Z,13.8
2022-11-27T15:25:09.542Z,13.8
2022-11-27T15:26:25.796Z,13.7
2022-11-27T15:28:58.275Z,14.1
2022-11-27T15:30:14.503Z,15.9
2022-11-27T15:31:30.738Z,14.3
2022-11-27T15:32:46.980Z,14.5
2022-11-27T15:34:03.231Z,14.4
2022-11-27T15:36:35.719Z,12.9
2022-11-27T15:37:51.946Z,13.9
2022-11-27T15:39:08.193Z,13.7
2022-11-27T15:40:23.454Z,13.6
2022-11-27T15:41:39.697Z,15.6
2022-11-27T15:42:55.978Z,15.9
2022-11-27T15:44:12.278Z,13.6
2022-11-27T15:45:28.584Z,14.7
2022-11-27T15:46:44.880Z,14.8
2022-11-27T15:48:01.159Z,14.5
2022-11-27T15:49:17.466Z,15
2022-11-27T15:50:33.765Z,13.9
2022-11-27T15:51:50.056Z,15.1
2022-11-27T15:53:06.340Z,14.7
2022-11-27T15:54:22.635Z,13.8
2022-11-27T15:55:38.928Z,14.4
2022-11-27T15:56:54.236Z,13.4
2022-11-27T15:58:10.527Z,12.9
2022-11-27T15:59:26.835Z,13.6
2022-11-27T16:00:43.120Z,16
2022-11-27T16:01:59.407Z,13.4
2022-11-27T16:03:15.718Z,14.9
2022-11-27T16:04:31.998Z,14.2
2022-11-27T16:05:48.293Z,15.7
2022-11-27T16:07:04.597Z,14.8
2022-11-27T16:09:37.193Z,14.2
2022-11-27T16:10:53.489Z,15
2022-11-27T16:12:09.772Z,14.7
2022-11-27T16:13:25.093Z,13.6
2022-11-27T16:14:41.383Z,14.7
2022-11-27T16:15:57.677Z,14.1
2022-11-27T16:17:13.978Z,12.4
2022-11-27T16:18:30.271Z,13.6
2022-11-27T16:19:46.569Z,14.1
2022-11-27T16:21:02.848Z,13.3
2022-11-27T16:22:19.144Z,14.5
2022-11-27T16:23:35.450Z,12.7
2022-11-27T16:24:51.744Z,11.3
2022-11-27T16:26:08.033Z,12.7
2022-11-27T16:27:24.337Z,13.2
2022-11-27T16:28:40.620Z,11.2
2022-11-27T16:29:55.939Z,12.3
2022-11-27T16:31:12.220Z,11.9
2022-11-27T16:32:28.517Z,11.3
2022-11-27T16:33:44.814Z,9.3
2022-11-27T16:35:01.116Z,11.4
2022-11-27T16:37:33.701Z,10.8
2022-11-27T16:38:49.986Z,11.2
2022-11-27T16:40:06.294Z,12.8
2022-11-27T16:41:22.574Z,12.5
2022-11-27T16:42:38.886Z,12.3
2022-11-27T16:43:55.178Z,12.5
2022-11-27T16:45:11.466Z,12.9
2022-11-27T16:46:26.775Z,15.5
2022-11-27T16:47:43.076Z,13.3
2022-11-27T16:48:59.369Z,13
2022-11-27T16:50:15.671Z,14.2
2022-11-27T16:51:31.947Z,13.7
2022-11-27T16:52:48.262Z,13.7
2022-11-27T16:54:04.546Z,14.5
2022-11-27T16:55:20.831Z,14
2022-11-27T16:56:37.127Z,15
2022-11-27T16:57:53.437Z,16.7
2022-11-27T16:59:09.717Z,14.9
2022-11-27T17:00:26.029Z,13.5
2022-11-27T17:01:42.326Z,15.4
2022-11-27T17:02:57.628Z,16.3
2022-11-27T17:04:13.915Z,16.1
2022-11-27T17:05:30.226Z,15.2
2022-11-27T17:06:46.516Z,15.2
2022-11-27T17:08:02.794Z,16
2022-11-27T17:09:19.102Z,15.1
2022-11-27T17:10:35.391Z,15
2022-11-27T17:11:51.680Z,15.6
2022-11-27T17:13:07.986Z,16.1
2022-11-27T17:14:24.278Z,18
2022-11-27T17:15:40.563Z,17.4
2022-11-27T17:16:56.866Z,16
2022-11-27T17:18:13.172Z,17.5
2022-11-27T17:19:29.457Z,16.7
2022-11-27T17:20:44.774Z,16.5
2022-11-27T17:22:01.054Z,25.5
2022-11-27T17:23:17.352Z,14.7
2022-11-27T17:24:33.658Z,17.8
2022-11-27T17:25:49.000Z,17.4
2022-11-27T17:27:06.250Z,16.6
2022-11-27T17:28:22.534Z,17
2022-11-27T17:30:55.118Z,17.1
2022-11-27T17:32:11.418Z,17.5
2022-11-27T17:33:27.708Z,17.2
2022-11-27T17:34:44.019Z,15.9
2022-11-27T17:36:00.312Z,16.9